sensor_id;sensor_type;location;lat;lon;timestamp;pressure;altitude;pressure_sealevel;temperature;humidity
20825;BME280;10573;50.936;6.978;2023-08-31T00:01:49;100475.03;;;16.53;66.64
20825;BME280;10573;50.936;6.978;2023-08-31T00:04:14;100475.09;;;16.60;66.58
20825;BME280;10573;50.936;6.978;2023-08-31T00:06:40;100471.03;;;16.56;66.29
20825;BME280;10573;50.936;6.978;2023-08-31T00:09:06;100477.09;;;16.36;66.91
20825;BME280;10573;50.936;6.978;2023-08-31T00:11:35;100473.97;;;16.39;66.81
20825;BME280;10573;50.936;6.978;2023-08-31T00:14:01;100468.28;;;16.26;66.98
20825;BME280;10573;50.936;6.978;2023-08-31T00:16:26;100472.00;;;16.33;66.99
20825;BME280;10573;50.936;6.978;2023-08-31T00:18:53;100476.81;;;16.31;67.09
20825;BME280;10573;50.936;6.978;2023-08-31T00:21:20;100467.53;;;16.32;67.23
20825;BME280;10573;50.936;6.978;2023-08-31T00:23:46;100466.31;;;16.35;67.21
20825;BME280;10573;50.936;6.978;2023-08-31T00:26:11;100465.44;;;16.34;66.66
20825;BME280;10573;50.936;6.978;2023-08-31T00:28:36;100472.19;;;16.32;66.63
20825;BME280;10573;50.936;6.978;2023-08-31T00:31:02;100470.66;;;16.29;66.79
20825;BME280;10573;50.936;6.978;2023-08-31T00:33:31;100470.19;;;16.10;67.23
20825;BME280;10573;50.936;6.978;2023-08-31T00:36:00;100465.91;;;16.23;66.94
20825;BME280;10573;50.936;6.978;2023-08-31T00:38:29;100466.41;;;16.12;67.22
20825;BME280;10573;50.936;6.978;2023-08-31T00:40:54;100468.09;;;16.13;67.68
20825;BME280;10573;50.936;6.978;2023-08-31T00:43:20;100468.28;;;16.26;67.84
20825;BME280;10573;50.936;6.978;2023-08-31T00:45:48;100467.72;;;16.16;67.15
20825;BME280;10573;50.936;6.978;2023-08-31T00:48:15;100474.06;;;16.16;67.45
20825;BME280;10573;50.936;6.978;2023-08-31T00:50:43;100473.22;;;16.16;67.00
20825;BME280;10573;50.936;6.978;2023-08-31T00:53:08;100484.03;;;16.02;67.00
20825;BME280;10573;50.936;6.978;2023-08-31T00:55:34;100471.50;;;16.00;67.05
20825;BME280;10573;50.936;6.978;2023-08-31T00:58:00;100474.47;;;16.13;67.08
20825;BME280;10573;50.936;6.978;2023-08-31T01:00:33;100470.94;;;16.04;66.94
20825;BME280;10573;50.936;6.978;2023-08-31T01:03:12;100474.56;;;16.05;66.82
20825;BME280;10573;50.936;6.978;2023-08-31T01:05:49;100471.31;;;16.01;66.77
20825;BME280;10573;50.936;6.978;2023-08-31T01:08:32;100476.44;;;16.04;66.83
20825;BME280;10573;50.936;6.978;2023-08-31T01:11:17;100479.47;;;16.09;66.83
20825;BME280;10573;50.936;6.978;2023-08-31T01:14:04;100473.97;;;16.09;66.48
20825;BME280;10573;50.936;6.978;2023-08-31T01:16:34;100467.44;;;16.10;66.67
20825;BME280;10573;50.936;6.978;2023-08-31T01:19:03;100477.00;;;16.15;66.48
20825;BME280;10573;50.936;6.978;2023-08-31T01:21:38;100473.31;;;16.07;66.62
20825;BME280;10573;50.936;6.978;2023-08-31T01:24:05;100478.88;;;15.99;66.48
20825;BME280;10573;50.936;6.978;2023-08-31T01:26:31;100480.22;;;16.03;66.13
20825;BME280;10573;50.936;6.978;2023-08-31T01:28:57;100478.78;;;15.92;66.54
20825;BME280;10573;50.936;6.978;2023-08-31T01:31:23;100474.69;;;15.88;66.45
20825;BME280;10573;50.936;6.978;2023-08-31T01:33:49;100477.94;;;15.92;66.33
20825;BME280;10573;50.936;6.978;2023-08-31T01:36:22;100479.66;;;15.93;66.32
20825;BME280;10573;50.936;6.978;2023-08-31T01:38:54;100481.06;;;15.89;66.40
20825;BME280;10573;50.936;6.978;2023-08-31T01:41:23;100481.47;;;15.77;66.75
20825;BME280;10573;50.936;6.978;2023-08-31T01:43:51;100478.53;;;15.79;66.61
20825;BME280;10573;50.936;6.978;2023-08-31T01:46:17;100480.50;;;15.70;67.12
20825;BME280;10573;50.936;6.978;2023-08-31T01:48:43;100489.25;;;15.74;66.96
20825;BME280;10573;50.936;6.978;2023-08-31T01:51:09;100490.72;;;15.61;67.20
20825;BME280;10573;50.936;6.978;2023-08-31T01:53:35;100490.72;;;15.61;67.21
20825;BME280;10573;50.936;6.978;2023-08-31T01:56:00;100495.28;;;15.69;67.10
20825;BME280;10573;50.936;6.978;2023-08-31T01:58:26;100489.69;;;15.63;66.97
20825;BME280;10573;50.936;6.978;2023-08-31T02:00:51;100494.44;;;15.69;66.77
20825;BME280;10573;50.936;6.978;2023-08-31T02:03:16;100494.44;;;15.46;67.15
20825;BME280;10573;50.936;6.978;2023-08-31T02:05:42;100499.47;;;15.42;67.51
20825;BME280;10573;50.936;6.978;2023-08-31T02:08:07;100494.41;;;15.54;67.27
20825;BME280;10573;50.936;6.978;2023-08-31T02:10:33;100498.59;;;15.41;67.55
20825;BME280;10573;50.936;6.978;2023-08-31T02:12:59;100499.69;;;15.55;67.17
20825;BME280;10573;50.936;6.978;2023-08-31T02:15:25;100498.72;;;15.48;67.16
20825;BME280;10573;50.936;6.978;2023-08-31T02:17:50;100493.00;;;15.58;67.02
20825;BME280;10573;50.936;6.978;2023-08-31T02:20:16;100502.75;;;15.37;67.28
20825;BME280;10573;50.936;6.978;2023-08-31T02:22:41;100502.03;;;15.43;67.39
20825;BME280;10573;50.936;6.978;2023-08-31T02:25:07;100508.13;;;15.54;67.12
20825;BME280;10573;50.936;6.978;2023-08-31T02:27:33;100510.19;;;15.52;67.22
20825;BME280;10573;50.936;6.978;2023-08-31T02:29:58;100511.59;;;15.48;67.09
20825;BME280;10573;50.936;6.978;2023-08-31T02:32:23;100511.78;;;15.46;66.77
20825;BME280;10573;50.936;6.978;2023-08-31T02:34:49;100510.38;;;15.50;66.90
20825;BME280;10573;50.936;6.978;2023-08-31T02:37:15;100504.50;;;15.53;66.50
20825;BME280;10573;50.936;6.978;2023-08-31T02:39:40;100508.59;;;15.57;66.55
20825;BME280;10573;50.936;6.978;2023-08-31T02:42:05;100508.59;;;15.57;66.29
20825;BME280;10573;50.936;6.978;2023-08-31T02:44:32;100509.47;;;15.58;66.61
20825;BME280;10573;50.936;6.978;2023-08-31T02:46:57;100507.56;;;15.58;66.40
20825;BME280;10573;50.936;6.978;2023-08-31T02:49:22;100510.00;;;15.53;66.12
20825;BME280;10573;50.936;6.978;2023-08-31T02:51:48;100509.69;;;15.48;66.21
20825;BME280;10573;50.936;6.978;2023-08-31T02:54:14;100507.50;;;15.43;66.30
20825;BME280;10573;50.936;6.978;2023-08-31T02:56:40;100518.81;;;15.49;66.79
20825;BME280;10573;50.936;6.978;2023-08-31T02:59:05;100512.16;;;15.43;66.53
20825;BME280;10573;50.936;6.978;2023-08-31T03:01:30;100506.88;;;15.33;66.53
20825;BME280;10573;50.936;6.978;2023-08-31T03:03:56;100509.94;;;15.38;66.66
20825;BME280;10573;50.936;6.978;2023-08-31T03:06:21;100506.88;;;15.33;66.23
20825;BME280;10573;50.936;6.978;2023-08-31T03:08:46;100506.66;;;15.43;66.81
20825;BME280;10573;50.936;6.978;2023-08-31T03:11:12;100505.03;;;15.34;67.00
20825;BME280;10573;50.936;6.978;2023-08-31T03:13:39;100512.63;;;15.23;66.58
20825;BME280;10573;50.936;6.978;2023-08-31T03:16:04;100515.00;;;15.26;66.34
20825;BME280;10573;50.936;6.978;2023-08-31T03:18:30;100511.22;;;15.27;66.27
20825;BME280;10573;50.936;6.978;2023-08-31T03:20:55;100504.63;;;15.14;66.51
20825;BME280;10573;50.936;6.978;2023-08-31T03:23:21;100508.66;;;15.26;66.29
20825;BME280;10573;50.936;6.978;2023-08-31T03:25:47;100508.97;;;15.31;66.43
20825;BME280;10573;50.936;6.978;2023-08-31T03:28:12;100513.72;;;15.37;66.37
20825;BME280;10573;50.936;6.978;2023-08-31T03:30:38;100510.97;;;15.37;66.03
20825;BME280;10573;50.936;6.978;2023-08-31T03:33:03;100514.72;;;15.44;66.40
20825;BME280;10573;50.936;6.978;2023-08-31T03:35:29;100508.22;;;15.37;66.04
20825;BME280;10573;50.936;6.978;2023-08-31T03:37:56;100517.66;;;15.43;66.23
20825;BME280;10573;50.936;6.978;2023-08-31T03:40:22;100518.88;;;15.40;66.18
20825;BME280;10573;50.936;6.978;2023-08-31T03:42:50;100518.50;;;15.43;66.20
20825;BME280;10573;50.936;6.978;2023-08-31T03:45:16;100523.72;;;15.53;65.67
20825;BME280;10573;50.936;6.978;2023-08-31T03:47:41;100521.88;;;15.46;65.67
20825;BME280;10573;50.936;6.978;2023-08-31T03:50:07;100516.78;;;15.42;65.58
20825;BME280;10573;50.936;6.978;2023-08-31T03:52:33;100528.31;;;15.38;65.99
20825;BME280;10573;50.936;6.978;2023-08-31T03:54:58;100518.81;;;15.49;65.73
20825;BME280;10573;50.936;6.978;2023-08-31T03:57:24;100515.91;;;15.65;65.44
20825;BME280;10573;50.936;6.978;2023-08-31T03:59:49;100523.50;;;15.63;65.47
20825;BME280;10573;50.936;6.978;2023-08-31T04:02:15;100533.84;;;15.76;65.45
20825;BME280;10573;50.936;6.978;2023-08-31T04:04:40;100520.69;;;15.71;65.22
20825;BME280;10573;50.936;6.978;2023-08-31T04:07:05;100529.47;;;15.67;65.31
20825;BME280;10573;50.936;6.978;2023-08-31T04:09:32;100531.66;;;15.71;65.44
20825;BME280;10573;50.936;6.978;2023-08-31T04:11:57;100535.53;;;15.62;65.04
20825;BME280;10573;50.936;6.978;2023-08-31T04:14:22;100524.09;;;15.73;64.91
20825;BME280;10573;50.936;6.978;2023-08-31T04:16:48;100530.34;;;15.67;64.91
20825;BME280;10573;50.936;6.978;2023-08-31T04:19:16;100529.00;;;15.63;65.10
20825;BME280;10573;50.936;6.978;2023-08-31T04:21:42;100538.59;;;15.59;65.42
20825;BME280;10573;50.936;6.978;2023-08-31T04:24:08;100532.41;;;15.65;65.66
20825;BME280;10573;50.936;6.978;2023-08-31T04:26:33;100540.81;;;15.64;65.31
20825;BME280;10573;50.936;6.978;2023-08-31T04:28:59;100530.38;;;15.59;65.71
20825;BME280;10573;50.936;6.978;2023-08-31T04:31:24;100538.25;;;15.62;65.46
20825;BME280;10573;50.936;6.978;2023-08-31T04:33:49;100535.13;;;15.65;65.46
20825;BME280;10573;50.936;6.978;2023-08-31T04:36:19;100538.59;;;15.59;65.73
20825;BME280;10573;50.936;6.978;2023-08-31T04:38:45;100547.59;;;15.53;66.06
20825;BME280;10573;50.936;6.978;2023-08-31T04:41:10;100543.25;;;15.35;66.15
20825;BME280;10573;50.936;6.978;2023-08-31T04:43:35;100557.44;;;15.47;65.98
20825;BME280;10573;50.936;6.978;2023-08-31T04:46:01;100554.97;;;15.52;65.95
20825;BME280;10573;50.936;6.978;2023-08-31T04:48:29;100564.72;;;15.55;66.02
20825;BME280;10573;50.936;6.978;2023-08-31T04:50:57;100559.31;;;15.47;66.53
20825;BME280;10573;50.936;6.978;2023-08-31T04:53:22;100564.72;;;15.55;66.79
20825;BME280;10573;50.936;6.978;2023-08-31T04:55:48;100563.63;;;15.64;66.30
20825;BME280;10573;50.936;6.978;2023-08-31T04:58:13;100572.63;;;15.58;66.25
20825;BME280;10573;50.936;6.978;2023-08-31T05:00:39;100559.59;;;15.52;66.43
20825;BME280;10573;50.936;6.978;2023-08-31T05:03:04;100572.94;;;15.63;66.12
20825;BME280;10573;50.936;6.978;2023-08-31T05:05:30;100573.28;;;15.60;66.13
20825;BME280;10573;50.936;6.978;2023-08-31T05:07:56;100577.16;;;15.42;66.39
20825;BME280;10573;50.936;6.978;2023-08-31T05:10:21;100575.81;;;15.38;66.67
20825;BME280;10573;50.936;6.978;2023-08-31T05:12:47;100584.38;;;15.43;66.82
20825;BME280;10573;50.936;6.978;2023-08-31T05:15:13;100584.25;;;15.37;66.85
20825;BME280;10573;50.936;6.978;2023-08-31T05:17:38;100596.13;;;15.29;66.92
20825;BME280;10573;50.936;6.978;2023-08-31T05:20:04;100588.03;;;15.36;66.81
20825;BME280;10573;50.936;6.978;2023-08-31T05:22:30;100597.19;;;15.20;67.62
20825;BME280;10573;50.936;6.978;2023-08-31T05:24:55;100601.44;;;15.31;67.63
20825;BME280;10573;50.936;6.978;2023-08-31T05:27:21;100609.13;;;15.35;67.57
20825;BME280;10573;50.936;6.978;2023-08-31T05:29:46;100609.13;;;15.35;67.17
20825;BME280;10573;50.936;6.978;2023-08-31T05:32:12;100608.13;;;15.36;67.51
20825;BME280;10573;50.936;6.978;2023-08-31T05:34:37;100609.84;;;15.29;67.32
20825;BME280;10573;50.936;6.978;2023-08-31T05:37:05;100609.97;;;15.36;67.33
20825;BME280;10573;50.936;6.978;2023-08-31T05:39:30;100610.34;;;15.33;67.48
20825;BME280;10573;50.936;6.978;2023-08-31T05:41:56;100619.75;;;15.38;67.77
20825;BME280;10573;50.936;6.978;2023-08-31T05:44:22;100612.09;;;15.57;67.66
20825;BME280;10573;50.936;6.978;2023-08-31T05:46:47;100617.97;;;15.54;67.10
20825;BME280;10573;50.936;6.978;2023-08-31T05:49:13;100608.66;;;15.55;67.30
20825;BME280;10573;50.936;6.978;2023-08-31T05:51:38;100622.38;;;15.63;66.92
20825;BME280;10573;50.936;6.978;2023-08-31T05:54:04;100620.28;;;15.65;66.56
20825;BME280;10573;50.936;6.978;2023-08-31T05:56:29;100621.72;;;15.53;67.00
20825;BME280;10573;50.936;6.978;2023-08-31T05:58:55;100616.13;;;15.69;66.98
20825;BME280;10573;50.936;6.978;2023-08-31T06:01:21;100624.22;;;15.63;66.70
20825;BME280;10573;50.936;6.978;2023-08-31T06:03:50;100624.78;;;15.58;66.75
20825;BME280;10573;50.936;6.978;2023-08-31T06:06:15;100612.34;;;15.70;66.29
20825;BME280;10573;50.936;6.978;2023-08-31T06:08:41;100622.94;;;15.82;66.24
20825;BME280;10573;50.936;6.978;2023-08-31T06:11:08;100627.97;;;15.70;66.38
20825;BME280;10573;50.936;6.978;2023-08-31T06:13:34;100634.59;;;15.84;66.23
20825;BME280;10573;50.936;6.978;2023-08-31T06:15:59;100636.44;;;15.60;66.71
20825;BME280;10573;50.936;6.978;2023-08-31T06:18:25;100638.97;;;15.70;66.25
20825;BME280;10573;50.936;6.978;2023-08-31T06:20:51;100640.59;;;15.87;65.99
20825;BME280;10573;50.936;6.978;2023-08-31T06:23:16;100638.72;;;15.80;65.94
20825;BME280;10573;50.936;6.978;2023-08-31T06:25:41;100643.28;;;15.96;65.92
20825;BME280;10573;50.936;6.978;2023-08-31T06:28:07;100644.13;;;15.96;66.07
20825;BME280;10573;50.936;6.978;2023-08-31T06:30:34;100640.75;;;16.09;65.73
20825;BME280;10573;50.936;6.978;2023-08-31T06:33:00;100642.00;;;16.06;65.28
20825;BME280;10573;50.936;6.978;2023-08-31T06:35:25;100647.78;;;16.12;65.23
20825;BME280;10573;50.936;6.978;2023-08-31T06:37:51;100641.91;;;16.15;64.95
20825;BME280;10573;50.936;6.978;2023-08-31T06:40:16;100644.88;;;16.28;64.91
20825;BME280;10573;50.936;6.978;2023-08-31T06:42:42;100649.69;;;16.26;64.62
20825;BME280;10573;50.936;6.978;2023-08-31T06:45:08;100650.22;;;16.44;64.72
20825;BME280;10573;50.936;6.978;2023-08-31T06:47:34;100648.16;;;16.47;63.84
20825;BME280;10573;50.936;6.978;2023-08-31T06:50:00;100657.63;;;16.44;64.36
20825;BME280;10573;50.936;6.978;2023-08-31T06:52:26;100646.28;;;16.62;63.63
20825;BME280;10573;50.936;6.978;2023-08-31T06:54:51;100650.47;;;16.73;63.80
20825;BME280;10573;50.936;6.978;2023-08-31T06:57:22;100655.03;;;16.81;63.47
20825;BME280;10573;50.936;6.978;2023-08-31T06:59:48;100653.50;;;16.78;63.51
20825;BME280;10573;50.936;6.978;2023-08-31T07:02:14;100652.50;;;16.94;62.73
20825;BME280;10573;50.936;6.978;2023-08-31T07:04:39;100653.44;;;17.01;62.51
20825;BME280;10573;50.936;6.978;2023-08-31T07:07:06;100654.66;;;16.99;62.44
20825;BME280;10573;50.936;6.978;2023-08-31T07:09:32;100655.44;;;17.07;62.58
20825;BME280;10573;50.936;6.978;2023-08-31T07:11:57;100657.44;;;17.14;62.42
20825;BME280;10573;50.936;6.978;2023-08-31T07:14:23;100650.41;;;17.11;62.25
20825;BME280;10573;50.936;6.978;2023-08-31T07:16:49;100649.72;;;17.24;61.45
20825;BME280;10573;50.936;6.978;2023-08-31T07:19:15;100655.69;;;17.42;61.57
20825;BME280;10573;50.936;6.978;2023-08-31T07:21:40;100652.88;;;17.21;61.41
20825;BME280;10573;50.936;6.978;2023-08-31T07:24:06;100649.97;;;17.44;60.96
20825;BME280;10573;50.936;6.978;2023-08-31T07:26:32;100653.16;;;17.63;60.43
20825;BME280;10573;50.936;6.978;2023-08-31T07:28:57;100653.97;;;17.41;60.83
20825;BME280;10573;50.936;6.978;2023-08-31T07:31:22;100665.41;;;17.60;60.79
20825;BME280;10573;50.936;6.978;2023-08-31T07:33:48;100666.25;;;17.75;60.12
20825;BME280;10573;50.936;6.978;2023-08-31T07:36:13;100668.00;;;17.98;59.03
20825;BME280;10573;50.936;6.978;2023-08-31T07:38:40;100669.41;;;17.94;59.53
20825;BME280;10573;50.936;6.978;2023-08-31T07:41:06;100659.59;;;18.06;58.84
20825;BME280;10573;50.936;6.978;2023-08-31T07:43:31;100672.22;;;18.16;58.57
20825;BME280;10573;50.936;6.978;2023-08-31T07:45:56;100671.22;;;18.52;57.75
20825;BME280;10573;50.936;6.978;2023-08-31T07:48:23;100676.69;;;18.45;57.46
20825;BME280;10573;50.936;6.978;2023-08-31T07:50:48;100680.03;;;18.90;56.91
20825;BME280;10573;50.936;6.978;2023-08-31T07:53:14;100668.72;;;19.14;55.00
20825;BME280;10573;50.936;6.978;2023-08-31T07:55:39;100670.66;;;19.68;54.69
20825;BME280;10573;50.936;6.978;2023-08-31T07:58:05;100676.06;;;19.90;52.95
20825;BME280;10573;50.936;6.978;2023-08-31T08:00:30;100670.25;;;19.78;53.42
20825;BME280;10573;50.936;6.978;2023-08-31T08:02:56;100673.06;;;19.85;52.96
20825;BME280;10573;50.936;6.978;2023-08-31T08:05:21;100676.13;;;19.55;53.63
20825;BME280;10573;50.936;6.978;2023-08-31T08:07:46;100686.06;;;19.01;54.95
20825;BME280;10573;50.936;6.978;2023-08-31T08:10:12;100684.59;;;18.76;55.39
20825;BME280;10573;50.936;6.978;2023-08-31T08:12:39;100695.06;;;18.88;55.14
20825;BME280;10573;50.936;6.978;2023-08-31T08:15:06;100699.81;;;18.66;56.42
20825;BME280;10573;50.936;6.978;2023-08-31T08:17:34;100701.06;;;18.63;56.56
20825;BME280;10573;50.936;6.978;2023-08-31T08:19:59;100690.56;;;19.50;54.39
20825;BME280;10573;50.936;6.978;2023-08-31T08:22:25;100694.72;;;19.74;54.02
20825;BME280;10573;50.936;6.978;2023-08-31T08:24:50;100696.28;;;19.97;53.35
20825;BME280;10573;50.936;6.978;2023-08-31T08:27:16;100698.41;;;19.95;53.55
20825;BME280;10573;50.936;6.978;2023-08-31T08:29:43;100697.97;;;19.91;53.99
20825;BME280;10573;50.936;6.978;2023-08-31T08:32:09;100691.19;;;20.07;53.24
20825;BME280;10573;50.936;6.978;2023-08-31T08:34:34;100691.91;;;20.50;52.27
20825;BME280;10573;50.936;6.978;2023-08-31T08:36:59;100687.84;;;20.99;51.22
20825;BME280;10573;50.936;6.978;2023-08-31T08:39:25;100671.25;;;21.96;49.09
20825;BME280;10573;50.936;6.978;2023-08-31T08:41:52;100662.94;;;23.23;46.00
20825;BME280;10573;50.936;6.978;2023-08-31T08:44:21;100657.22;;;23.85;44.13
20825;BME280;10573;50.936;6.978;2023-08-31T08:46:48;100656.69;;;23.76;43.25
20825;BME280;10573;50.936;6.978;2023-08-31T08:49:15;100649.69;;;24.94;41.01
20825;BME280;10573;50.936;6.978;2023-08-31T08:51:41;100661.09;;;24.81;41.15
20825;BME280;10573;50.936;6.978;2023-08-31T08:54:07;100646.53;;;25.84;38.99
20825;BME280;10573;50.936;6.978;2023-08-31T08:56:33;100644.47;;;26.54;38.37
20825;BME280;10573;50.936;6.978;2023-08-31T08:59:00;100645.81;;;26.85;36.97
20825;BME280;10573;50.936;6.978;2023-08-31T09:01:26;100653.34;;;26.17;37.62
20825;BME280;10573;50.936;6.978;2023-08-31T09:03:51;100683.59;;;23.83;41.11
20825;BME280;10573;50.936;6.978;2023-08-31T09:06:17;100695.63;;;23.02;43.44
20825;BME280;10573;50.936;6.978;2023-08-31T09:08:42;100698.19;;;21.89;44.83
20825;BME280;10573;50.936;6.978;2023-08-31T09:11:08;100706.81;;;21.74;45.02
20825;BME280;10573;50.936;6.978;2023-08-31T09:13:34;100698.84;;;21.85;45.13
20825;BME280;10573;50.936;6.978;2023-08-31T09:15:59;100691.03;;;22.45;44.18
20825;BME280;10573;50.936;6.978;2023-08-31T09:18:31;100684.91;;;23.61;42.86
20825;BME280;10573;50.936;6.978;2023-08-31T09:20:58;100672.63;;;24.30;41.09
20825;BME280;10573;50.936;6.978;2023-08-31T09:23:24;100674.13;;;25.39;39.74
20825;BME280;10573;50.936;6.978;2023-08-31T09:25:51;100665.53;;;25.41;38.29
20825;BME280;10573;50.936;6.978;2023-08-31T09:28:20;100662.91;;;25.63;38.35
20825;BME280;10573;50.936;6.978;2023-08-31T09:30:47;100662.66;;;25.93;36.75
20825;BME280;10573;50.936;6.978;2023-08-31T09:33:14;100662.00;;;26.32;36.53
20825;BME280;10573;50.936;6.978;2023-08-31T09:35:56;100660.81;;;26.79;35.16
20825;BME280;10573;50.936;6.978;2023-08-31T09:38:21;100665.47;;;26.39;35.69
20825;BME280;10573;50.936;6.978;2023-08-31T09:40:47;100666.38;;;26.62;35.23
20825;BME280;10573;50.936;6.978;2023-08-31T09:43:19;100665.63;;;26.33;35.32
20825;BME280;10573;50.936;6.978;2023-08-31T09:45:46;100677.28;;;26.12;36.00
20825;BME280;10573;50.936;6.978;2023-08-31T09:48:13;100665.78;;;26.26;35.50
20825;BME280;10573;50.936;6.978;2023-08-31T09:50:43;100675.66;;;25.59;36.17
20825;BME280;10573;50.936;6.978;2023-08-31T09:53:10;100667.97;;;26.07;35.72
20825;BME280;10573;50.936;6.978;2023-08-31T09:55:39;100660.03;;;26.84;35.00
20825;BME280;10573;50.936;6.978;2023-08-31T09:58:06;100653.47;;;26.73;34.55
20825;BME280;10573;50.936;6.978;2023-08-31T10:00:35;100669.03;;;25.24;35.75
20825;BME280;10573;50.936;6.978;2023-08-31T10:03:03;100665.53;;;25.41;35.86
20825;BME280;10573;50.936;6.978;2023-08-31T10:05:29;100691.97;;;23.27;39.52
20825;BME280;10573;50.936;6.978;2023-08-31T10:07:55;100689.44;;;23.93;39.08
20825;BME280;10573;50.936;6.978;2023-08-31T10:10:21;100682.16;;;24.76;37.70
20825;BME280;10573;50.936;6.978;2023-08-31T10:12:51;100673.28;;;25.27;36.80
20825;BME280;10573;50.936;6.978;2023-08-31T10:15:17;100662.91;;;26.38;35.29
20825;BME280;10573;50.936;6.978;2023-08-31T10:17:44;100673.06;;;26.44;35.13
20825;BME280;10573;50.936;6.978;2023-08-31T10:20:15;100666.66;;;26.77;34.09
20825;BME280;10573;50.936;6.978;2023-08-31T10:22:41;100661.81;;;26.56;33.93
20825;BME280;10573;50.936;6.978;2023-08-31T10:25:07;100661.50;;;26.06;34.12
20825;BME280;10573;50.936;6.978;2023-08-31T10:27:37;100680.34;;;24.94;36.94
20825;BME280;10573;50.936;6.978;2023-08-31T10:35:51;100707.94;;;23.13;40.00
20825;BME280;10573;50.936;6.978;2023-08-31T10:43:48;100707.72;;;23.33;38.25
20825;BME280;10573;50.936;6.978;2023-08-31T10:51:36;100672.50;;;25.55;34.02
20825;BME280;10573;50.936;6.978;2023-08-31T10:59:52;100677.00;;;25.44;34.73
20825;BME280;10573;50.936;6.978;2023-08-31T11:04:55;100685.72;;;24.53;37.45
20825;BME280;10573;50.936;6.978;2023-08-31T11:07:26;100677.88;;;25.21;36.39
20825;BME280;10573;50.936;6.978;2023-08-31T11:09:51;100669.66;;;25.67;35.79
20825;BME280;10573;50.936;6.978;2023-08-31T11:12:17;100662.25;;;26.82;33.60
20825;BME280;10573;50.936;6.978;2023-08-31T11:14:47;100652.13;;;27.59;32.52
20825;BME280;10573;50.936;6.978;2023-08-31T11:17:13;100640.78;;;28.25;32.78
20825;BME280;10573;50.936;6.978;2023-08-31T11:19:38;100640.72;;;28.15;31.99
20825;BME280;10573;50.936;6.978;2023-08-31T11:22:05;100634.34;;;28.25;31.72
20825;BME280;10573;50.936;6.978;2023-08-31T11:24:31;100650.03;;;27.71;32.25
20825;BME280;10573;50.936;6.978;2023-08-31T11:26:57;100656.78;;;26.07;33.81
20825;BME280;10573;50.936;6.978;2023-08-31T11:29:22;100674.53;;;24.72;36.89
20825;BME280;10573;50.936;6.978;2023-08-31T11:31:48;100681.38;;;24.45;37.79
20825;BME280;10573;50.936;6.978;2023-08-31T11:34:17;100681.78;;;23.88;39.38
20825;BME280;10573;50.936;6.978;2023-08-31T11:36:45;100692.81;;;23.27;41.07
20825;BME280;10573;50.936;6.978;2023-08-31T11:39:14;100700.03;;;22.66;42.87
20825;BME280;10573;50.936;6.978;2023-08-31T11:41:42;100713.00;;;22.08;44.36
20825;BME280;10573;50.936;6.978;2023-08-31T11:44:09;100712.69;;;21.33;46.64
20825;BME280;10573;50.936;6.978;2023-08-31T11:46:36;100729.16;;;21.07;46.89
20825;BME280;10573;50.936;6.978;2023-08-31T11:49:02;100728.28;;;21.00;46.93
20825;BME280;10573;50.936;6.978;2023-08-31T11:51:32;100728.09;;;20.68;47.87
20825;BME280;10573;50.936;6.978;2023-08-31T11:53:59;100724.88;;;20.58;48.33
20825;BME280;10573;50.936;6.978;2023-08-31T11:56:25;100726.16;;;20.49;48.62
20825;BME280;10573;50.936;6.978;2023-08-31T11:58:51;100713.81;;;20.65;47.57
20825;BME280;10573;50.936;6.978;2023-08-31T12:01:21;100714.69;;;20.78;46.77
20825;BME280;10573;50.936;6.978;2023-08-31T12:03:46;100710.38;;;21.16;46.84
20825;BME280;10573;50.936;6.978;2023-08-31T12:06:15;100688.59;;;21.33;44.65
20825;BME280;10573;50.936;6.978;2023-08-31T12:08:41;100684.16;;;21.77;44.76
20825;BME280;10573;50.936;6.978;2023-08-31T12:11:07;100685.09;;;21.58;44.74
20825;BME280;10573;50.936;6.978;2023-08-31T12:13:32;100687.09;;;21.89;44.12
20825;BME280;10573;50.936;6.978;2023-08-31T12:15:58;100696.56;;;22.13;43.45
20825;BME280;10573;50.936;6.978;2023-08-31T12:18:29;100703.84;;;22.40;42.85
20825;BME280;10573;50.936;6.978;2023-08-31T12:20:55;100688.25;;;23.52;40.63
20825;BME280;10573;50.936;6.978;2023-08-31T12:23:22;100676.09;;;25.03;38.15
20825;BME280;10573;50.936;6.978;2023-08-31T12:25:49;100677.28;;;25.19;37.64
20825;BME280;10573;50.936;6.978;2023-08-31T12:28:16;100682.59;;;24.50;38.95
20825;BME280;10573;50.936;6.978;2023-08-31T12:30:42;100688.22;;;24.19;40.12
20825;BME280;10573;50.936;6.978;2023-08-31T12:33:11;100690.47;;;23.80;41.43
20825;BME280;10573;50.936;6.978;2023-08-31T12:35:36;100710.94;;;22.86;43.83
20825;BME280;10573;50.936;6.978;2023-08-31T12:38:02;100708.81;;;22.31;45.87
20825;BME280;10573;50.936;6.978;2023-08-31T12:40:27;100715.47;;;22.23;46.95
20825;BME280;10573;50.936;6.978;2023-08-31T12:42:52;100703.78;;;21.83;48.24
20825;BME280;10573;50.936;6.978;2023-08-31T12:47:43;100683.44;;;21.57;46.83
20825;BME280;10573;50.936;6.978;2023-08-31T12:50:09;100674.03;;;21.58;45.76
20825;BME280;10573;50.936;6.978;2023-08-31T12:52:34;100682.34;;;21.51;44.83
20825;BME280;10573;50.936;6.978;2023-08-31T12:55:00;100678.88;;;21.04;44.37
20825;BME280;10573;50.936;6.978;2023-08-31T12:57:25;100679.59;;;21.38;43.60
20825;BME280;10573;50.936;6.978;2023-08-31T12:59:50;100674.03;;;21.44;43.17
20825;BME280;10573;50.936;6.978;2023-08-31T13:02:16;100674.88;;;21.58;43.15
20825;BME280;10573;50.936;6.978;2023-08-31T13:04:41;100670.69;;;21.88;42.48
20825;BME280;10573;50.936;6.978;2023-08-31T13:07:06;100661.97;;;23.66;39.85
20825;BME280;10573;50.936;6.978;2023-08-31T13:09:32;100649.19;;;24.97;37.50
20825;BME280;10573;50.936;6.978;2023-08-31T13:11:57;100635.66;;;26.28;36.38
20825;BME280;10573;50.936;6.978;2023-08-31T13:14:23;100646.56;;;26.46;34.21